sensor_id;sensor_type;location;lat;lon;timestamp;P1;durP1;ratioP1;P2;durP2;ratioP2
72053;SDS011;59918;51.280;7.950;2023-06-10T00:01:24;16.60;;;11.07;;
72053;SDS011;59918;51.280;7.950;2023-06-10T00:03:55;16.02;;;12.00;;
72053;SDS011;59918;51.280;7.950;2023-06-10T00:06:21;20.97;;;11.20;;
72053;SDS011;59918;51.280;7.950;2023-06-10T00:08:47;13.00;;;11.10;;
72053;SDS011;59918;51.280;7.950;2023-06-10T00:11:12;13.52;;;11.27;;
72053;SDS011;59918;51.280;7.950;2023-06-10T00:13:45;15.45;;;11.05;;
72053;SDS011;59918;51.280;7.950;2023-06-10T00:16:10;19.85;;;11.45;;
72053;SDS011;59918;51.280;7.950;2023-06-10T00:18:35;18.73;;;11.27;;
72053;SDS011;59918;51.280;7.950;2023-06-10T00:21:00;16.80;;;12.35;;
72053;SDS011;59918;51.280;7.950;2023-06-10T00:23:34;18.77;;;11.05;;
72053;SDS011;59918;51.280;7.950;2023-06-10T00:26:00;17.60;;;11.93;;
72053;SDS011;59918;51.280;7.950;2023-06-10T00:28:30;23.20;;;13.05;;
72053;SDS011;59918;51.280;7.950;2023-06-10T00:30:55;12.02;;;10.88;;
72053;SDS011;59918;51.280;7.950;2023-06-10T00:33:20;12.52;;;11.38;;
72053;SDS011;59918;51.280;7.950;2023-06-10T00:35:46;12.75;;;10.70;;
72053;SDS011;59918;51.280;7.950;2023-06-10T00:38:13;16.75;;;11.10;;
72053;SDS011;59918;51.280;7.950;2023-06-10T00:40:45;33.55;;;13.48;;
72053;SDS011;59918;51.280;7.950;2023-06-10T00:43:10;27.08;;;11.88;;
72053;SDS011;59918;51.280;7.950;2023-06-10T00:45:36;16.70;;;11.48;;
72053;SDS011;59918;51.280;7.950;2023-06-10T00:48:01;18.40;;;12.23;;
72053;SDS011;59918;51.280;7.950;2023-06-10T00:50:33;19.15;;;11.38;;
72053;SDS011;59918;51.280;7.950;2023-06-10T00:52:58;15.10;;;11.68;;
72053;SDS011;59918;51.280;7.950;2023-06-10T00:55:24;20.23;;;11.40;;
72053;SDS011;59918;51.280;7.950;2023-06-10T00:57:55;18.42;;;11.73;;
72053;SDS011;59918;51.280;7.950;2023-06-10T01:00:21;12.73;;;11.15;;
72053;SDS011;59918;51.280;7.950;2023-06-10T01:02:46;15.65;;;10.98;;
72053;SDS011;59918;51.280;7.950;2023-06-10T01:05:11;15.20;;;10.63;;
72053;SDS011;59918;51.280;7.950;2023-06-10T01:07:38;15.32;;;11.30;;
72053;SDS011;59918;51.280;7.950;2023-06-10T01:12:46;12.38;;;10.23;;
72053;SDS011;59918;51.280;7.950;2023-06-10T01:15:18;14.15;;;11.10;;
72053;SDS011;59918;51.280;7.950;2023-06-10T01:20:25;32.40;;;13.13;;
72053;SDS011;59918;51.280;7.950;2023-06-10T01:22:54;14.27;;;12.32;;
72053;SDS011;59918;51.280;7.950;2023-06-10T01:25:20;14.98;;;12.65;;
72053;SDS011;59918;51.280;7.950;2023-06-10T01:27:47;18.20;;;12.07;;
72053;SDS011;59918;51.280;7.950;2023-06-10T01:30:19;16.08;;;12.70;;
72053;SDS011;59918;51.280;7.950;2023-06-10T01:32:54;17.52;;;13.75;;
72053;SDS011;59918;51.280;7.950;2023-06-10T01:35:20;14.38;;;12.88;;
72053;SDS011;59918;51.280;7.950;2023-06-10T01:37:49;14.63;;;13.13;;
72053;SDS011;59918;51.280;7.950;2023-06-10T01:40:23;15.55;;;13.77;;
72053;SDS011;59918;51.280;7.950;2023-06-10T01:42:48;15.55;;;13.90;;
72053;SDS011;59918;51.280;7.950;2023-06-10T01:45:14;15.02;;;13.52;;
72053;SDS011;59918;51.280;7.950;2023-06-10T01:47:42;17.40;;;13.85;;
72053;SDS011;59918;51.280;7.950;2023-06-10T01:50:07;17.67;;;13.48;;
72053;SDS011;59918;51.280;7.950;2023-06-10T01:52:33;18.20;;;13.77;;
72053;SDS011;59918;51.280;7.950;2023-06-10T01:54:58;15.60;;;14.15;;
72053;SDS011;59918;51.280;7.950;2023-06-10T01:57:23;14.88;;;13.32;;
72053;SDS011;59918;51.280;7.950;2023-06-10T01:59:48;17.83;;;13.00;;
72053;SDS011;59918;51.280;7.950;2023-06-10T02:02:14;15.73;;;12.40;;
72053;SDS011;59918;51.280;7.950;2023-06-10T02:04:45;19.65;;;13.32;;
72053;SDS011;59918;51.280;7.950;2023-06-10T02:07:10;15.73;;;13.20;;
72053;SDS011;59918;51.280;7.950;2023-06-10T02:09:35;16.48;;;12.75;;
72053;SDS011;59918;51.280;7.950;2023-06-10T02:12:02;19.60;;;13.50;;
72053;SDS011;59918;51.280;7.950;2023-06-10T02:14:31;17.13;;;13.05;;
72053;SDS011;59918;51.280;7.950;2023-06-10T02:16:57;18.10;;;13.40;;
72053;SDS011;59918;51.280;7.950;2023-06-10T02:19:23;15.13;;;13.27;;
72053;SDS011;59918;51.280;7.950;2023-06-10T02:21:48;15.02;;;12.57;;
72053;SDS011;59918;51.280;7.950;2023-06-10T02:24:13;17.73;;;13.60;;
72053;SDS011;59918;51.280;7.950;2023-06-10T02:26:38;15.50;;;13.43;;
72053;SDS011;59918;51.280;7.950;2023-06-10T02:29:07;15.65;;;12.63;;
72053;SDS011;59918;51.280;7.950;2023-06-10T02:31:33;17.45;;;12.20;;
72053;SDS011;59918;51.280;7.950;2023-06-10T02:33:58;14.30;;;12.65;;
72053;SDS011;59918;51.280;7.950;2023-06-10T02:36:23;14.90;;;13.18;;
72053;SDS011;59918;51.280;7.950;2023-06-10T02:38:49;14.00;;;12.60;;
72053;SDS011;59918;51.280;7.950;2023-06-10T02:41:15;19.55;;;12.27;;
72053;SDS011;59918;51.280;7.950;2023-06-10T02:43:43;16.42;;;12.90;;
72053;SDS011;59918;51.280;7.950;2023-06-10T02:46:08;14.80;;;12.10;;
72053;SDS011;59918;51.280;7.950;2023-06-10T02:48:40;16.85;;;11.73;;
72053;SDS011;59918;51.280;7.950;2023-06-10T02:51:08;14.60;;;12.48;;
72053;SDS011;59918;51.280;7.950;2023-06-10T02:53:34;13.90;;;11.88;;
72053;SDS011;59918;51.280;7.950;2023-06-10T02:55:59;13.38;;;12.00;;
72053;SDS011;59918;51.280;7.950;2023-06-10T02:58:32;16.85;;;11.38;;
72053;SDS011;59918;51.280;7.950;2023-06-10T03:00:57;16.75;;;11.50;;
72053;SDS011;59918;51.280;7.950;2023-06-10T03:03:23;17.23;;;11.82;;
72053;SDS011;59918;51.280;7.950;2023-06-10T03:05:48;13.95;;;11.38;;
72053;SDS011;59918;51.280;7.950;2023-06-10T03:08:13;13.05;;;11.65;;
72053;SDS011;59918;51.280;7.950;2023-06-10T03:10:39;12.32;;;11.05;;
72053;SDS011;59918;51.280;7.950;2023-06-10T03:13:07;19.48;;;12.27;;
72053;SDS011;59918;51.280;7.950;2023-06-10T03:15:33;19.77;;;11.98;;
72053;SDS011;59918;51.280;7.950;2023-06-10T03:17:59;23.73;;;12.40;;
72053;SDS011;59918;51.280;7.950;2023-06-10T03:20:25;21.63;;;12.00;;
72053;SDS011;59918;51.280;7.950;2023-06-10T03:22:50;18.38;;;10.90;;
72053;SDS011;59918;51.280;7.950;2023-06-10T03:25:15;19.65;;;11.40;;
72053;SDS011;59918;51.280;7.950;2023-06-10T03:27:43;11.57;;;10.48;;
72053;SDS011;59918;51.280;7.950;2023-06-10T03:30:09;10.50;;;9.55;;
72053;SDS011;59918;51.280;7.950;2023-06-10T03:32:34;16.27;;;11.75;;
72053;SDS011;59918;51.280;7.950;2023-06-10T03:34:59;16.90;;;11.90;;
72053;SDS011;59918;51.280;7.950;2023-06-10T03:37:25;25.20;;;12.98;;
72053;SDS011;59918;51.280;7.950;2023-06-10T03:39:50;20.23;;;12.32;;
72053;SDS011;59918;51.280;7.950;2023-06-10T03:42:15;16.38;;;12.05;;
72053;SDS011;59918;51.280;7.950;2023-06-10T03:44:46;19.38;;;12.13;;
72053;SDS011;59918;51.280;7.950;2023-06-10T03:47:11;20.92;;;12.35;;
72053;SDS011;59918;51.280;7.950;2023-06-10T03:49:37;16.40;;;11.88;;
72053;SDS011;59918;51.280;7.950;2023-06-10T03:52:10;17.45;;;11.38;;
72053;SDS011;59918;51.280;7.950;2023-06-10T03:54:35;15.60;;;11.93;;
72053;SDS011;59918;51.280;7.950;2023-06-10T03:57:00;20.33;;;12.18;;
72053;SDS011;59918;51.280;7.950;2023-06-10T03:59:26;18.30;;;11.55;;
72053;SDS011;59918;51.280;7.950;2023-06-10T04:01:51;14.80;;;11.63;;
72053;SDS011;59918;51.280;7.950;2023-06-10T04:04:19;18.02;;;12.43;;
72053;SDS011;59918;51.280;7.950;2023-06-10T04:06:44;16.17;;;12.20;;
72053;SDS011;59918;51.280;7.950;2023-06-10T04:09:10;21.77;;;12.23;;
72053;SDS011;59918;51.280;7.950;2023-06-10T04:11:36;15.07;;;11.95;;
72053;SDS011;59918;51.280;7.950;2023-06-10T04:14:01;19.70;;;11.82;;
72053;SDS011;59918;51.280;7.950;2023-06-10T04:16:27;17.20;;;12.63;;
72053;SDS011;59918;51.280;7.950;2023-06-10T04:18:55;15.88;;;11.32;;
72053;SDS011;59918;51.280;7.950;2023-06-10T04:21:20;20.77;;;12.30;;
72053;SDS011;59918;51.280;7.950;2023-06-10T04:23:46;18.17;;;11.65;;
72053;SDS011;59918;51.280;7.950;2023-06-10T04:26:11;18.42;;;11.98;;
72053;SDS011;59918;51.280;7.950;2023-06-10T04:28:36;17.98;;;11.60;;
72053;SDS011;59918;51.280;7.950;2023-06-10T04:31:01;18.77;;;10.73;;
72053;SDS011;59918;51.280;7.950;2023-06-10T04:33:27;16.30;;;11.88;;
72053;SDS011;59918;51.280;7.950;2023-06-10T04:35:55;20.92;;;11.30;;
72053;SDS011;59918;51.280;7.950;2023-06-10T04:38:20;18.48;;;11.35;;
72053;SDS011;59918;51.280;7.950;2023-06-10T04:40:46;23.92;;;11.98;;
72053;SDS011;59918;51.280;7.950;2023-06-10T04:43:11;30.48;;;13.05;;
72053;SDS011;59918;51.280;7.950;2023-06-10T04:45:36;26.08;;;12.45;;
72053;SDS011;59918;51.280;7.950;2023-06-10T04:48:01;23.42;;;11.82;;
72053;SDS011;59918;51.280;7.950;2023-06-10T04:50:27;25.15;;;11.48;;
72053;SDS011;59918;51.280;7.950;2023-06-10T04:52:58;21.80;;;12.30;;
72053;SDS011;59918;51.280;7.950;2023-06-10T04:55:23;31.73;;;11.88;;
72053;SDS011;59918;51.280;7.950;2023-06-10T04:57:49;21.50;;;11.18;;
72053;SDS011;59918;51.280;7.950;2023-06-10T05:00:14;21.92;;;11.30;;
72053;SDS011;59918;51.280;7.950;2023-06-10T05:02:39;20.95;;;11.40;;
72053;SDS011;59918;51.280;7.950;2023-06-10T05:05:08;19.55;;;11.93;;
72053;SDS011;59918;51.280;7.950;2023-06-10T05:07:33;20.27;;;11.73;;
72053;SDS011;59918;51.280;7.950;2023-06-10T05:09:58;16.20;;;11.38;;
72053;SDS011;59918;51.280;7.950;2023-06-10T05:12:23;15.25;;;11.18;;
72053;SDS011;59918;51.280;7.950;2023-06-10T05:14:49;17.02;;;11.40;;
72053;SDS011;59918;51.280;7.950;2023-06-10T05:17:14;13.38;;;10.50;;
72053;SDS011;59918;51.280;7.950;2023-06-10T05:19:39;15.30;;;11.15;;
72053;SDS011;59918;51.280;7.950;2023-06-10T05:22:08;12.32;;;10.60;;
72053;SDS011;59918;51.280;7.950;2023-06-10T05:24:33;13.52;;;11.43;;
72053;SDS011;59918;51.280;7.950;2023-06-10T05:26:58;12.68;;;10.63;;
72053;SDS011;59918;51.280;7.950;2023-06-10T05:29:23;11.23;;;9.85;;
72053;SDS011;59918;51.280;7.950;2023-06-10T05:31:51;16.02;;;10.35;;
72053;SDS011;59918;51.280;7.950;2023-06-10T05:34:19;10.93;;;9.80;;
72053;SDS011;59918;51.280;7.950;2023-06-10T05:36:45;11.73;;;10.32;;
72053;SDS011;59918;51.280;7.950;2023-06-10T05:39:10;11.77;;;10.15;;
72053;SDS011;59918;51.280;7.950;2023-06-10T05:41:35;12.57;;;10.32;;
72053;SDS011;59918;51.280;7.950;2023-06-10T05:44:00;14.77;;;10.93;;
72053;SDS011;59918;51.280;7.950;2023-06-10T05:46:26;12.77;;;11.48;;
72053;SDS011;59918;51.280;7.950;2023-06-10T05:48:51;13.38;;;11.75;;
72053;SDS011;59918;51.280;7.950;2023-06-10T05:51:22;16.45;;;11.45;;
72053;SDS011;59918;51.280;7.950;2023-06-10T05:53:50;12.88;;;11.52;;
72053;SDS011;59918;51.280;7.950;2023-06-10T05:56:15;14.82;;;9.70;;
72053;SDS011;59918;51.280;7.950;2023-06-10T05:58:46;11.77;;;10.68;;
72053;SDS011;59918;51.280;7.950;2023-06-10T06:01:11;12.48;;;9.80;;
72053;SDS011;59918;51.280;7.950;2023-06-10T06:03:37;16.55;;;10.82;;
72053;SDS011;59918;51.280;7.950;2023-06-10T06:06:02;13.05;;;9.88;;
72053;SDS011;59918;51.280;7.950;2023-06-10T06:08:28;9.10;;;8.40;;
72053;SDS011;59918;51.280;7.950;2023-06-10T06:10:57;14.32;;;8.70;;
72053;SDS011;59918;51.280;7.950;2023-06-10T06:13:22;9.80;;;8.90;;
72053;SDS011;59918;51.280;7.950;2023-06-10T06:15:48;13.45;;;8.90;;
72053;SDS011;59918;51.280;7.950;2023-06-10T06:18:14;10.13;;;8.63;;
72053;SDS011;59918;51.280;7.950;2023-06-10T06:20:39;14.43;;;8.93;;
72053;SDS011;59918;51.280;7.950;2023-06-10T06:23:08;14.63;;;9.38;;
72053;SDS011;59918;51.280;7.950;2023-06-10T06:25:33;8.98;;;8.07;;
72053;SDS011;59918;51.280;7.950;2023-06-10T06:27:58;9.50;;;8.55;;
72053;SDS011;59918;51.280;7.950;2023-06-10T06:30:23;9.77;;;8.88;;
72053;SDS011;59918;51.280;7.950;2023-06-10T06:32:49;11.63;;;9.45;;
72053;SDS011;59918;51.280;7.950;2023-06-10T06:35:14;9.77;;;8.80;;
72053;SDS011;59918;51.280;7.950;2023-06-10T06:37:39;11.05;;;8.68;;
72053;SDS011;59918;51.280;7.950;2023-06-10T06:40:08;11.43;;;9.35;;
72053;SDS011;59918;51.280;7.950;2023-06-10T06:42:33;12.93;;;9.77;;
72053;SDS011;59918;51.280;7.950;2023-06-10T06:44:59;11.65;;;8.52;;
72053;SDS011;59918;51.280;7.950;2023-06-10T06:47:24;10.40;;;9.00;;
72053;SDS011;59918;51.280;7.950;2023-06-10T06:49:49;10.25;;;9.23;;
72053;SDS011;59918;51.280;7.950;2023-06-10T06:52:15;11.45;;;9.05;;
72053;SDS011;59918;51.280;7.950;2023-06-10T06:54:40;9.25;;;8.43;;
72053;SDS011;59918;51.280;7.950;2023-06-10T06:57:09;9.38;;;8.35;;
72053;SDS011;59918;51.280;7.950;2023-06-10T06:59:34;9.55;;;8.35;;
72053;SDS011;59918;51.280;7.950;2023-06-10T07:01:59;12.38;;;8.48;;
72053;SDS011;59918;51.280;7.950;2023-06-10T07:04:25;10.20;;;7.93;;
72053;SDS011;59918;51.280;7.950;2023-06-10T07:06:50;9.90;;;8.32;;
72053;SDS011;59918;51.280;7.950;2023-06-10T07:09:15;10.15;;;8.27;;
72053;SDS011;59918;51.280;7.950;2023-06-10T07:11:47;7.80;;;7.20;;
72053;SDS011;59918;51.280;7.950;2023-06-10T07:14:12;8.13;;;7.28;;
72053;SDS011;59918;51.280;7.950;2023-06-10T07:16:37;8.25;;;7.55;;
72053;SDS011;59918;51.280;7.950;2023-06-10T07:19:02;9.50;;;8.18;;
72053;SDS011;59918;51.280;7.950;2023-06-10T07:21:29;9.43;;;7.40;;
72053;SDS011;59918;51.280;7.950;2023-06-10T07:23:58;11.55;;;8.13;;
72053;SDS011;59918;51.280;7.950;2023-06-10T07:26:23;7.57;;;6.97;;
72053;SDS011;59918;51.280;7.950;2023-06-10T07:28:48;8.30;;;7.53;;
72053;SDS011;59918;51.280;7.950;2023-06-10T07:31:13;11.77;;;7.38;;
72053;SDS011;59918;51.280;7.950;2023-06-10T07:33:39;12.55;;;7.72;;
72053;SDS011;59918;51.280;7.950;2023-06-10T07:36:13;8.10;;;7.30;;
72053;SDS011;59918;51.280;7.950;2023-06-10T07:38:38;9.57;;;6.72;;
72053;SDS011;59918;51.280;7.950;2023-06-10T07:41:03;9.73;;;7.80;;
72053;SDS011;59918;51.280;7.950;2023-06-10T07:43:34;7.75;;;6.93;;
72053;SDS011;59918;51.280;7.950;2023-06-10T07:46:00;8.60;;;7.13;;
72053;SDS011;59918;51.280;7.950;2023-06-10T07:48:25;8.02;;;6.88;;
72053;SDS011;59918;51.280;7.950;2023-06-10T07:50:51;6.97;;;6.35;;
72053;SDS011;59918;51.280;7.950;2023-06-10T07:53:20;8.23;;;6.78;;
72053;SDS011;59918;51.280;7.950;2023-06-10T07:55:45;6.50;;;6.00;;
72053;SDS011;59918;51.280;7.950;2023-06-10T07:58:10;8.85;;;6.72;;
72053;SDS011;59918;51.280;7.950;2023-06-10T08:00:35;7.43;;;6.72;;
72053;SDS011;59918;51.280;7.950;2023-06-10T08:03:01;7.63;;;6.15;;
72053;SDS011;59918;51.280;7.950;2023-06-10T08:05:26;8.15;;;6.25;;
72053;SDS011;59918;51.280;7.950;2023-06-10T08:07:51;7.25;;;5.80;;
72053;SDS011;59918;51.280;7.950;2023-06-10T08:10:19;7.45;;;6.10;;
72053;SDS011;59918;51.280;7.950;2023-06-10T08:12:45;6.97;;;6.28;;
72053;SDS011;59918;51.280;7.950;2023-06-10T08:15:10;8.88;;;6.13;;
72053;SDS011;59918;51.280;7.950;2023-06-10T08:17:36;8.02;;;6.53;;
72053;SDS011;59918;51.280;7.950;2023-06-10T08:20:02;6.43;;;5.80;;
72053;SDS011;59918;51.280;7.950;2023-06-10T08:22:27;6.68;;;6.10;;
72053;SDS011;59918;51.280;7.950;2023-06-10T08:24:56;7.57;;;6.38;;
72053;SDS011;59918;51.280;7.950;2023-06-10T08:27:21;6.28;;;5.70;;
72053;SDS011;59918;51.280;7.950;2023-06-10T08:29:46;10.15;;;6.53;;
72053;SDS011;59918;51.280;7.950;2023-06-10T08:32:12;7.15;;;6.50;;
72053;SDS011;59918;51.280;7.950;2023-06-10T08:34:37;10.88;;;6.28;;
72053;SDS011;59918;51.280;7.950;2023-06-10T08:37:02;9.15;;;6.10;;
72053;SDS011;59918;51.280;7.950;2023-06-10T08:39:31;6.55;;;5.95;;
72053;SDS011;59918;51.280;7.950;2023-06-10T08:44:33;5.93;;;5.53;;
72053;SDS011;59918;51.280;7.950;2023-06-10T08:47:00;7.80;;;5.53;;
72053;SDS011;59918;51.280;7.950;2023-06-10T08:49:38;6.55;;;5.90;;
72053;SDS011;59918;51.280;7.950;2023-06-10T08:52:07;10.45;;;6.47;;
72053;SDS011;59918;51.280;7.950;2023-06-10T08:54:38;12.50;;;6.00;;
72053;SDS011;59918;51.280;7.950;2023-06-10T08:57:07;6.22;;;5.65;;
72053;SDS011;59918;51.280;7.950;2023-06-10T08:59:32;7.45;;;5.97;;
72053;SDS011;59918;51.280;7.950;2023-06-10T09:01:58;6.93;;;5.68;;
72053;SDS011;59918;51.280;7.950;2023-06-10T09:04:26;6.05;;;5.55;;
72053;SDS011;59918;51.280;7.950;2023-06-10T09:06:52;5.82;;;5.40;;
72053;SDS011;59918;51.280;7.950;2023-06-10T09:09:20;5.95;;;5.45;;
72053;SDS011;59918;51.280;7.950;2023-06-10T09:11:48;6.72;;;6.05;;
72053;SDS011;59918;51.280;7.950;2023-06-10T09:14:13;9.80;;;6.05;;
72053;SDS011;59918;51.280;7.950;2023-06-10T09:16:38;6.88;;;6.20;;
72053;SDS011;59918;51.280;7.950;2023-06-10T09:19:10;7.15;;;6.28;;
72053;SDS011;59918;51.280;7.950;2023-06-10T09:21:38;7.28;;;5.65;;
72053;SDS011;59918;51.280;7.950;2023-06-10T09:24:04;6.55;;;5.88;;
72053;SDS011;59918;51.280;7.950;2023-06-10T09:26:33;6.72;;;5.38;;
72053;SDS011;59918;51.280;7.950;2023-06-10T09:29:07;9.23;;;6.15;;
72053;SDS011;59918;51.280;7.950;2023-06-10T09:31:34;6.10;;;5.57;;
72053;SDS011;59918;51.280;7.950;2023-06-10T09:34:10;7.15;;;5.30;;
72053;SDS011;59918;51.280;7.950;2023-06-10T09:36:37;8.10;;;5.68;;
72053;SDS011;59918;51.280;7.950;2023-06-10T09:39:03;6.60;;;5.80;;
72053;SDS011;59918;51.280;7.950;2023-06-10T09:41:35;6.53;;;6.05;;
72053;SDS011;59918;51.280;7.950;2023-06-10T09:44:05;6.97;;;6.47;;
72053;SDS011;59918;51.280;7.950;2023-06-10T09:46:37;6.72;;;5.97;;
72053;SDS011;59918;51.280;7.950;2023-06-10T09:49:03;6.75;;;5.80;;
72053;SDS011;59918;51.280;7.950;2023-06-10T09:51:34;6.60;;;6.00;;
72053;SDS011;59918;51.280;7.950;2023-06-10T09:54:01;9.48;;;6.32;;
72053;SDS011;59918;51.280;7.950;2023-06-10T09:56:34;6.30;;;5.68;;
72053;SDS011;59918;51.280;7.950;2023-06-10T09:59:00;6.70;;;5.53;;
72053;SDS011;59918;51.280;7.950;2023-06-10T10:01:25;7.03;;;6.22;;
72053;SDS011;59918;51.280;7.950;2023-06-10T10:03:50;7.70;;;5.60;;
72053;SDS011;59918;51.280;7.950;2023-06-10T10:06:22;6.38;;;5.88;;
72053;SDS011;59918;51.280;7.950;2023-06-10T10:08:50;8.30;;;6.75;;
72053;SDS011;59918;51.280;7.950;2023-06-10T10:11:20;15.82;;;6.32;;
72053;SDS011;59918;51.280;7.950;2023-06-10T10:13:47;6.97;;;6.13;;
72053;SDS011;59918;51.280;7.950;2023-06-10T10:16:21;6.90;;;5.93;;
72053;SDS011;59918;51.280;7.950;2023-06-10T10:21:52;7.80;;;5.35;;
72053;SDS011;59918;51.280;7.950;2023-06-10T10:24:42;6.55;;;5.20;;
72053;SDS011;59918;51.280;7.950;2023-06-10T10:27:35;5.53;;;5.03;;
72053;SDS011;59918;51.280;7.950;2023-06-10T10:30:12;5.65;;;5.07;;
72053;SDS011;59918;51.280;7.950;2023-06-10T10:33:04;5.65;;;5.25;;
72053;SDS011;59918;51.280;7.950;2023-06-10T10:35:34;5.90;;;5.40;;
72053;SDS011;59918;51.280;7.950;2023-06-10T10:38:00;5.60;;;5.28;;
72053;SDS011;59918;51.280;7.950;2023-06-10T10:40:27;7.00;;;5.53;;
72053;SDS011;59918;51.280;7.950;2023-06-10T10:42:57;6.60;;;5.45;;
72053;SDS011;59918;51.280;7.950;2023-06-10T10:45:23;7.18;;;5.47;;
72053;SDS011;59918;51.280;7.950;2023-06-10T10:47:52;6.57;;;5.57;;
72053;SDS011;59918;51.280;7.950;2023-06-10T10:50:21;5.70;;;5.20;;
72053;SDS011;59918;51.280;7.950;2023-06-10T10:53:00;5.05;;;4.68;;
72053;SDS011;59918;51.280;7.950;2023-06-10T10:55:27;7.13;;;5.95;;
72053;SDS011;59918;51.280;7.950;2023-06-10T10:58:02;8.07;;;5.10;;
72053;SDS011;59918;51.280;7.950;2023-06-10T11:00:35;6.72;;;5.20;;
72053;SDS011;59918;51.280;7.950;2023-06-10T11:05:45;5.23;;;4.73;;
72053;SDS011;59918;51.280;7.950;2023-06-10T11:08:14;6.00;;;5.10;;
72053;SDS011;59918;51.280;7.950;2023-06-10T11:10:56;7.75;;;4.78;;
72053;SDS011;59918;51.280;7.950;2023-06-10T11:13:21;5.43;;;5.03;;
72053;SDS011;59918;51.280;7.950;2023-06-10T11:15:50;6.38;;;4.50;;
72053;SDS011;59918;51.280;7.950;2023-06-10T11:21:03;5.40;;;4.90;;
72053;SDS011;59918;51.280;7.950;2023-06-10T11:23:38;4.75;;;4.43;;
72053;SDS011;59918;51.280;7.950;2023-06-10T11:31:23;4.97;;;4.57;;
72053;SDS011;59918;51.280;7.950;2023-06-10T11:33:52;5.25;;;4.28;;
72053;SDS011;59918;51.280;7.950;2023-06-10T11:36:22;5.18;;;4.78;;
72053;SDS011;59918;51.280;7.950;2023-06-10T11:38:48;4.82;;;4.40;;
72053;SDS011;59918;51.280;7.950;2023-06-10T11:41:14;4.72;;;4.32;;
72053;SDS011;59918;51.280;7.950;2023-06-10T11:43:45;4.15;;;3.85;;
72053;SDS011;59918;51.280;7.950;2023-06-10T11:46:11;4.95;;;4.65;;
72053;SDS011;59918;51.280;7.950;2023-06-10T11:48:37;5.18;;;4.78;;
72053;SDS011;59918;51.280;7.950;2023-06-10T11:51:09;4.47;;;4.15;;
72053;SDS011;59918;51.280;7.950;2023-06-10T11:53:34;4.75;;;4.45;;
72053;SDS011;59918;51.280;7.950;2023-06-10T11:55:59;5.30;;;4.90;;
72053;SDS011;59918;51.280;7.950;2023-06-10T11:58:25;4.65;;;4.25;;
72053;SDS011;59918;51.280;7.950;2023-06-10T12:00:51;4.97;;;4.57;;
72053;SDS011;59918;51.280;7.950;2023-06-10T12:03:20;4.88;;;4.47;;
72053;SDS011;59918;51.280;7.950;2023-06-10T12:06:03;5.93;;;4.35;;
72053;SDS011;59918;51.280;7.950;2023-06-10T12:08:33;4.32;;;4.03;;
72053;SDS011;59918;51.280;7.950;2023-06-10T12:11:09;4.82;;;4.53;;
72053;SDS011;59918;51.280;7.950;2023-06-10T12:13:34;5.47;;;5.07;;
72053;SDS011;59918;51.280;7.950;2023-06-10T12:16:09;6.05;;;5.32;;
72053;SDS011;59918;51.280;7.950;2023-06-10T12:18:35;5.00;;;4.57;;
72053;SDS011;59918;51.280;7.950;2023-06-10T12:21:00;4.55;;;3.92;;
72053;SDS011;59918;51.280;7.950;2023-06-10T12:23:25;5.45;;;4.25;;
72053;SDS011;59918;51.280;7.950;2023-06-10T12:25:57;5.60;;;4.65;;
72053;SDS011;59918;51.280;7.950;2023-06-10T12:28:25;3.92;;;3.63;;
72053;SDS011;59918;51.280;7.950;2023-06-10T12:30:51;8.02;;;4.07;;
72053;SDS011;59918;51.280;7.950;2023-06-10T12:33:17;4.53;;;4.22;;
72053;SDS011;59918;51.280;7.950;2023-06-10T12:35:51;4.40;;;4.10;;
72053;SDS011;59918;51.280;7.950;2023-06-10T12:38:24;5.07;;;4.68;;
72053;SDS011;59918;51.280;7.950;2023-06-10T12:40:50;4.35;;;3.97;;
72053;SDS011;59918;51.280;7.950;2023-06-10T12:43:22;5.95;;;4.00;;
72053;SDS011;59918;51.280;7.950;2023-06-10T12:45:47;4.63;;;3.83;;
72053;SDS011;59918;51.280;7.950;2023-06-10T12:48:22;4.75;;;3.95;;
72053;SDS011;59918;51.280;7.950;2023-06-10T12:50:53;4.53;;;4.20;;
72053;SDS011;59918;51.280;7.950;2023-06-10T12:55:49;4.57;;;4.18;;
72053;SDS011;59918;51.280;7.950;2023-06-10T12:58:15;4.32;;;4.03;;
72053;SDS011;59918;51.280;7.950;2023-06-10T13:00:41;5.30;;;4.10;;
72053;SDS011;59918;51.280;7.950;2023-06-10T13:03:09;4.03;;;3.60;;
72053;SDS011;59918;51.280;7.950;2023-06-10T13:05:35;4.30;;;4.00;;
72053;SDS011;59918;51.280;7.950;2023-06-10T13:08:01;4.32;;;3.90;;
72053;SDS011;59918;51.280;7.950;2023-06-10T13:10:26;4.20;;;3.80;;
72053;SDS011;59918;51.280;7.950;2023-06-10T13:12:52;4.33;;;4.07;;
72053;SDS011;59918;51.280;7.950;2023-06-10T13:15:17;4.10;;;3.70;;
72053;SDS011;59918;51.280;7.950;2023-06-10T13:17:46;4.57;;;3.78;;
72053;SDS011;59918;51.280;7.950;2023-06-10T13:20:11;5.00;;;3.88;;
72053;SDS011;59918;51.280;7.950;2023-06-10T13:22:36;5.50;;;4.22;;
72053;SDS011;59918;51.280;7.950;2023-06-10T13:25:02;7.27;;;4.10;;
72053;SDS011;59918;51.280;7.950;2023-06-10T13:27:34;3.72;;;3.53;;
72053;SDS011;59918;51.280;7.950;2023-06-10T13:30:00;4.78;;;3.80;;
72053;SDS011;59918;51.280;7.950;2023-06-10T13:32:25;4.65;;;3.72;;
72053;SDS011;59918;51.280;7.950;2023-06-10T13:34:50;6.33;;;3.90;;
72053;SDS011;59918;51.280;7.950;2023-06-10T13:37:16;4.67;;;4.23;;
72053;SDS011;59918;51.280;7.950;2023-06-10T13:39:41;4.20;;;3.70;;
72053;SDS011;59918;51.280;7.950;2023-06-10T13:42:12;4.70;;;3.90;;
72053;SDS011;59918;51.280;7.950;2023-06-10T13:44:37;4.60;;;3.80;;
72053;SDS011;59918;51.280;7.950;2023-06-10T13:47:03;4.93;;;3.90;;
72053;SDS011;59918;51.280;7.950;2023-06-10T13:49:28;5.07;;;3.85;;
72053;SDS011;59918;51.280;7.950;2023-06-10T13:51:57;3.88;;;3.58;;
72053;SDS011;59918;51.280;7.950;2023-06-10T13:54:22;3.92;;;3.60;;
72053;SDS011;59918;51.280;7.950;2023-06-10T13:56:48;4.22;;;3.80;;
72053;SDS011;59918;51.280;7.950;2023-06-10T13:59:13;3.78;;;3.40;;
72053;SDS011;59918;51.280;7.950;2023-06-10T14:01:38;4.18;;;3.85;;
72053;SDS011;59918;51.280;7.950;2023-06-10T14:04:04;4.63;;;3.58;;
72053;SDS011;59918;51.280;7.950;2023-06-10T14:06:29;3.95;;;3.60;;
72053;SDS011;59918;51.280;7.950;2023-06-10T14:08:58;4.20;;;3.80;;
72053;SDS011;59918;51.280;7.950;2023-06-10T14:11:23;3.63;;;3.33;;
72053;SDS011;59918;51.280;7.950;2023-06-10T14:13:48;4.33;;;3.57;;
72053;SDS011;59918;51.280;7.950;2023-06-10T14:16:13;3.83;;;3.63;;
72053;SDS011;59918;51.280;7.950;2023-06-10T14:18:38;4.40;;;3.93;;
72053;SDS011;59918;51.280;7.950;2023-06-10T14:21:04;4.37;;;3.33;;
72053;SDS011;59918;51.280;7.950;2023-06-10T14:23:35;3.83;;;3.53;;
72053;SDS011;59918;51.280;7.950;2023-06-10T14:26:00;3.55;;;3.25;;
72053;SDS011;59918;51.280;7.950;2023-06-10T14:28:28;4.30;;;3.95;;
72053;SDS011;59918;51.280;7.950;2023-06-10T14:30:53;3.83;;;3.53;;
72053;SDS011;59918;51.280;7.950;2023-06-10T14:33:21;4.00;;;3.70;;
72053;SDS011;59918;51.280;7.950;2023-06-10T14:35:46;4.95;;;3.60;;
72053;SDS011;59918;51.280;7.950;2023-06-10T14:38:11;5.00;;;3.87;;
72053;SDS011;59918;51.280;7.950;2023-06-10T14:40:37;6.47;;;3.70;;
72053;SDS011;59918;51.280;7.950;2023-06-10T14:43:02;5.80;;;3.80;;
72053;SDS011;59918;51.280;7.950;2023-06-10T14:45:27;4.00;;;3.70;;
72053;SDS011;59918;51.280;7.950;2023-06-10T14:47:52;3.37;;;3.17;;
72053;SDS011;59918;51.280;7.950;2023-06-10T14:50:23;3.57;;;3.33;;
72053;SDS011;59918;51.280;7.950;2023-06-10T14:52:49;3.70;;;3.40;;
72053;SDS011;59918;51.280;7.950;2023-06-10T14:55:14;3.70;;;3.40;;
72053;SDS011;59918;51.280;7.950;2023-06-10T14:57:39;5.03;;;3.40;;
72053;SDS011;59918;51.280;7.950;2023-06-10T15:00:05;3.87;;;3.63;;